Flight Track Log - Related Links

Times and Time Zones

All times are in EDT time to prevent confusion due to time zone crossing. See the N704JM flight status page for this flight to view local times or setup timezone preferences in your user account.

Time Position Orientation Groundspeed Altitude Reporting Facility
EDT Latitude Longitude Course Direction KTS MPH feet Rate Location/Type
Tue 05:43:05 PM 40.1167 -85.6333 250° West 115 132 2,100  Level Indianapolis TRACON
Tue 05:44:18 PM 40.0964 -85.7072 250° West 270 311 3,000 400 Climbing Indianapolis Center
Tue 05:45:20 PM 40.0158 -85.7303 192° South 252 290 3,000 871 Level Indianapolis Center
Tue 05:46:22 PM 39.9467 -85.7472 191° South 250 288 4,800 1,728 Climbing Indianapolis Center
Tue 05:47:25 PM 39.8669 -85.7664 190° South 270 311 6,600 1,248 Climbing Indianapolis Center
Tue 05:48:27 PM 39.7869 -85.7867 191° South 285 328 7,400 1,355 Climbing Indianapolis Center
Tue 05:49:29 PM 39.7058 -85.8056 190° South 293 337 9,400 2,177 Climbing Indianapolis Center
Tue 05:50:31 PM 39.6192 -85.8256 190° South 310 357 11,900 1,935 Climbing Indianapolis Center
Tue 05:51:33 PM 39.5214 -85.8153 175° South 349 402 13,400 2,032 Climbing Indianapolis Center
Tue 05:52:35 PM 39.3956 -85.8069 177° South 371 427 16,100 2,323 Climbing Indianapolis Center
Tue 05:53:37 PM 39.2897 -85.7986 177° South 378 435 18,200 1,935 Climbing Indianapolis Center
Tue 05:54:39 PM 39.1814 -85.7903 177° South 386 444 20,100 1,694 Climbing Indianapolis Center
Tue 05:55:41 PM 39.0722 -85.7817 176° South 392 451 21,700 1,500 Climbing Indianapolis Center
Tue 05:56:43 PM 38.9597 -85.7742 177° South 400 460 23,200 1,403 Climbing Indianapolis Center
Tue 05:57:45 PM 38.8436 -85.7697 178° South 412 474 24,600 2,032 Climbing Indianapolis Center
Tue 05:58:47 PM 38.7086 -85.7850 185° South 407 468 27,400 1,645 Climbing Indianapolis Center
Tue 05:59:49 PM 38.6039 -85.7961 185° South 401 461 28,000 726 Climbing Indianapolis Center
Tue 06:00:51 PM 38.4778 -85.8094 185° South 435 501 28,900 1,694 Climbing Indianapolis Center
Tue 06:01:53 PM 38.3561 -85.8203 184° South 440 506 31,500 2,081 Climbing Indianapolis Center
Tue 06:02:55 PM 38.2417 -85.8328 185° South 418 481 33,200 1,839 Climbing Indianapolis Center
Tue 06:03:57 PM 38.1078 -85.8472 185° South 402 463 35,300 1,344 Climbing Indianapolis Center
Tue 06:05:00 PM 37.9958 -85.8578 184° South 400 460 36,000 336 Climbing Indianapolis Center
Tue 06:06:02 PM 37.8772 -85.8692 184° South 417 480 36,000  Level Indianapolis Center
Tue 06:07:04 PM 37.7514 -85.8819 185° South 443 510 36,000  Level Indianapolis Center
Tue 06:08:06 PM 37.6258 -85.8947 185° South 448 516 36,000  Level Indianapolis Center
Tue 06:09:08 PM 37.4925 -85.9083 185° South 446 513 36,000  Level Indianapolis Center
Tue 06:10:10 PM 37.3672 -85.9219 185° South 447 514 36,000  Level Indianapolis Center
Tue 06:11:12 PM 37.2417 -85.9347 185° South 448 516 36,000  Level Indianapolis Center
Tue 06:12:14 PM 37.1164 -85.9467 184° South 445 512 36,000  Level Indianapolis Center
Tue 06:13:16 PM 36.9697 -85.9611 184° South 447 514 36,000  Level Indianapolis Center
Tue 06:14:18 PM 36.8453 -85.9725 184° South 445 512 36,000  Level Indianapolis Center
Tue 06:15:20 PM 36.7194 -85.9853 185° South 446 513 36,000  Level Indianapolis Center
Tue 06:16:22 PM 36.5950 -85.9969 184° South 445 512 36,000  Level Indianapolis Center
Tue 06:17:24 PM 36.4689 -86.0094 185° South 446 513 36,000  Level Indianapolis Center
Tue 06:18:13 PM 36.3600 -86.0172 183° South 449 517 36,000  Level Memphis Center
Tue 06:19:13 PM 36.2353 -86.0292 184° South 449 517 36,000  Level Memphis Center
Tue 06:20:13 PM 36.1106 -86.0433 185° South 449 517 36,000  Level Memphis Center
Tue 06:21:13 PM 35.9858 -86.0550 184° South 449 517 36,000  Level Memphis Center
Tue 06:22:13 PM 35.8778 -86.0658 185° South 449 517 36,000  Level Memphis Center
Tue 06:23:13 PM 35.7531 -86.0775 184° South 449 517 36,000  Level Memphis Center
Tue 06:25:43 PM 35.4422 -86.1086 185° South 449 517 36,000 -46 Level Atlanta Center
Tue 06:27:00 PM 35.3132 -86.1275 191° South  Level FlightAware Approximate
Tue 06:29:43 PM 34.9444 -86.1722 206° Southwest 441 507 35,700  Level Atlanta Center
Tue 06:30:43 PM 34.8211 -86.1869 186° South 446 513 34,300 -1,350 Descending Atlanta Center
Tue 06:31:43 PM 34.6978 -86.2039 186° South 446 513 33,000 -900 Descending Atlanta Center
Tue 06:32:43 PM 34.5764 -86.2211 187° South 446 513 32,500 -950 Descending Atlanta Center
Tue 06:33:43 PM 34.4508 -86.2353 185° South 446 513 31,100 -750 Descending Atlanta Center
Tue 06:34:00 PM 34.6059 -86.3221 206° Southwest  Level FlightAware Approximate
Tue 06:34:43 PM 34.3275 -86.2522 186° South 446 513 31,000  Level Atlanta Center
Tue 06:35:00 PM 34.5123 -86.3772 206° Southwest  Level FlightAware Approximate
Tue 06:35:43 PM 34.2039 -86.2692 186° South 451 519 31,000  Level Atlanta Center
Tue 06:36:43 PM 34.0786 -86.2858 186° South 451 519 30,400 -1,400 Descending Atlanta Center
Tue 06:37:43 PM 33.9531 -86.3003 185° South 451 519 28,200 -2,100 Descending Atlanta Center
Tue 06:38:43 PM 33.8317 -86.3194 187° South 446 513 26,200 -1,100 Descending Atlanta Center
Tue 06:39:43 PM 33.7144 -86.3339 186° South 441 507 26,000 -150 Descending Atlanta Center
Tue 06:40:43 PM 33.5931 -86.3481 186° South 441 507 25,900 -550 Descending Atlanta Center
Tue 06:41:43 PM 33.4886 -86.3628 187° South 441 507 24,900 -950 Descending Atlanta Center
Tue 06:42:43 PM 33.3797 -86.3772 186° South 422 486 24,000 -600 Descending Atlanta Center
Tue 06:43:43 PM 33.2689 -86.3917 186° South 404 465 23,700 -1,200 Descending Atlanta Center
Tue 06:44:43 PM 33.1578 -86.4036 185° South 404 465 21,600 -2,450 Descending Atlanta Center
Tue 06:45:43 PM 33.0428 -86.4178 186° South 410 472 18,800 -2,000 Descending Atlanta Center
Tue 06:46:43 PM 32.9278 -86.4269 184° South 410 472 17,600 -1,550 Descending Atlanta Center
Tue 06:47:43 PM 32.8150 -86.4364 184° South 410 472 15,700 -2,000 Descending Atlanta Center
Tue 06:48:43 PM 32.7061 -86.4556 188° South 404 465 13,600 -2,450 Descending Atlanta Center
Tue 06:49:43 PM 32.6139 -86.4728 189° South 377 434 10,800 -2,250 Descending Atlanta Center
Tue 06:50:43 PM 32.5342 -86.4878 189° South 337 388 9,100 -2,400 Descending Atlanta Center
Tue 06:51:43 PM 32.4547 -86.5053 191° South 307 353 6,000 -3,000 Descending Atlanta Center
Tue 06:52:43 PM 32.3728 -86.5228 190° South 296 341 3,100 -1,450 Descending Atlanta Center
Tue 06:53:43 PM 32.3164 -86.5308 187° South 267 307 3,100 -750 Level Atlanta Center
Tue 06:54:43 PM 32.3089 -86.4867 101° East 139 160 1,600 -1,150 Descending Atlanta Center
Tue 06:55:43 PM 32.3056 -86.4447 95° East 116 133 800 -800 Descending Atlanta Center
Tue 06:57:00 PM 32.3006 -86.3940 90° East  Level Estimated
Tue 07:04:00 PM 32.3006 -86.3940 90° East  Level Estimated
Tue 07:05:00 PM 32.3006 -86.3940 90° East  Level Estimated

Login

Don't have an account? Register now (free) for customized features, flight alerts, and more!